Adrian, MN (56110)

11:27 PM CST en Diciembre 20, 2014 (GMT -0600)
Luverne | Change Station
CLOSE
Current Station
Aeropuerto
Location: Luverne,
Altura: 1430 ft
Estaciones meteorológicas cercanas

Alt 1430 ft 43.62 °N, 96.21 °W | Updated 13 minutes ago

Niebla
Niebla
32 ° F
Sensación térmica 23 ° F
N
12
Viento Variable Viento desde Sur

Hoy
Alta -- | Baja -- ° F
--% Posibilidad de precipitaciones
Ayer
Alta -- | Baja -- ° F
Precip. -- pul
7:53 AM 4:49 PM
Creciente menguante, 1% visible
Presión 29.99 pul
Visibilidad 1.2 Millas
Nubes Nublado 200 ft
Vientos helados 23 ° F
Punto de rocío 32 ° F
Humedad 100%
Precipitaciones 0.00 pul
Espesor de la nieve No disponible.
UV 0 de una escala de 12
Polen .10 de una escala de 12
Calidad del aire No disponible.
Flu Activity No disponible.
METAR KLYV 210514Z AUTO 18010KT 1 1/4SM BR OVC002 00/00 A2999 RMK AO2

More Conditions Fewer Conditions

Presión 29.99 pul
Visibilidad 1.2 Millas
Nubes Nublado 200 ft
Vientos helados 23 ° F
Punto de rocío 32 ° F
Humedad 100%
Precipitaciones 0.00 pul
Espesor de la nieve No disponible.
UV 0 de una escala de 12
Polen .10 de una escala de 12
Calidad del aire No disponible.
Flu Activity No disponible.
METAR KLYV 210514Z AUTO 18010KT 1 1/4SM BR OVC002 00/00 A2999 RMK AO2

More Conditions Fewer Conditions

10-Day Weather Forecast

Almanac

Astronomía

Dec. 20, 2014 Salida Puesta
Hora real
Crepúsculo civil
Crepúsculo náutico
Crepúsculo astronómico
Luna
Horas de luz
Horas de luz
Tomorrow will be .
, % of the Moon is Illuminated

Extremos de hoy

Máximos del estado Bajos del estado

Community

WunderPhotos

Upload Photos

1,779,358 ¡fotos cargadas!

WunderBlogs® & News

Nearby

Calidad del aire

  Calidad del aire Índice AQ Contaminante
Not available.

Grosos de nieve

Estación Profundido Altura

Actividad de terremotos

Ciudad Distance Mag. Tiempo y dato
Magnitud mínima muestra es 2,5.

Temperaturas de aguas costeras

Lugar Temperatura

Estaciones meteorológicas cercanas